EGOV

Anglesey Airport

Angelsey, United Kingdom
METAR EGOV 092150Z AUTO 28017KT 9999 FEW022/// BKN027/// 09/06 Q1022
Observed Flight Rules
Dec-9 @ 21:50 UTC (58 minutes ago) Marginal Visual Flight Rules
Wind Visibility Clouds
280° at 17 knots 10,000+ meters
  • Few at 2,200' AGL
  • Broken at 2,700' AGL
Temperatures Readings
Current 9°C / 48°F
Dewpoint 6°C / 43°F
Humidity 82%
Altimeter 30.18" Hg
Pressure 1022 hPa
Elevation 11
METAR EGOV 092150Z AUTO 28017KT 9999 FEW022/// BKN027/// 09/06 Q1022
Observed Flight Rules
Dec-9 @ 21:50 UTC
(58 minutes ago)
MVFR
Wind Visibility
280° at 17 knots 10,000+ meters
Clouds
  • Few at 2,200' AGL
  • Broken at 2,700' AGL
Temperature Dewpoint
9°C / 48°F 6°C / 43°F
Humidity Altimeter Pressure
82% 30.18" Hg 1022 hPa